Time;durP1;ratioP1;P1;durP2;ratioP2;P2;SDS_P1;SDS_P2;PMS_P1;PMS_P2;Temp;Humidity;BMP_temperature;BMP_pressure;BME280_temperature;BME280_humidity;BME280_pressure;Samples;Min_cycle;Max_cycle;Signal;HPM_P1;HPM_P2
2023/08/03 00:00:21;;;;;;;20.70;2.17;;;19.60;1.00;;;;;;5052263;28;20797;-82
2023/08/03 00:06:32;;;;;;;14.50;1.83;;;19.60;1.00;;;;;;5046268;28;20410;-82
2023/08/03 00:15:45;;;;;;;4.07;1.33;;;19.70;1.00;;;;;;5053105;28;20441;-81
2023/08/03 00:18:32;;;;;;;10.03;1.07;;;19.70;1.00;;;;;;5052031;28;20458;-80
2023/08/03 00:21:38;;;;;;;2.90;1.00;;;19.70;1.00;;;;;;5048194;28;20517;-80
2023/08/03 00:30:48;;;;;;;7.07;1.30;;;19.80;1.00;;;;;;5050692;28;20413;-82
2023/08/03 00:37:14;;;;;;;6.57;1.23;;;19.70;1.00;;;;;;5053572;28;20250;-82
2023/08/03 00:43:04;;;;;;;4.80;1.50;;;19.60;1.00;;;;;;5042364;28;20393;-80
2023/08/03 00:48:51;;;;;;;6.43;1.10;;;19.60;1.00;;;;;;5052001;28;20444;-80
2023/08/03 00:55:32;;;;;;;4.50;1.20;;;19.50;1.00;;;;;;5046455;28;20222;-82
2023/08/03 01:04:42;;;;;;;6.03;0.93;;;19.50;1.00;;;;;;5054450;28;20408;-82
2023/08/03 01:07:08;;;;;;;4.03;0.90;;;19.50;1.00;;;;;;5059538;28;20780;-82
2023/08/03 01:12:57;;;;;;;4.20;1.03;;;19.60;1.00;;;;;;5044061;28;20214;-80
2023/08/03 01:15:51;;;;;;;4.27;1.00;;;19.50;1.00;;;;;;5056221;28;20425;-80
2023/08/03 01:22:15;;;;;;;3.90;1.00;;;19.60;1.00;;;;;;5052128;28;20919;-80
2023/08/03 01:28:06;;;;;;;8.03;1.20;;;19.60;1.00;;;;;;5047484;28;20389;-81
2023/08/03 01:33:53;;;;;;;7.40;0.90;;;19.70;1.00;;;;;;5054910;28;20388;-81
2023/08/03 01:37:08;;;;;;;5.40;1.20;;;19.70;1.00;;;;;;5059818;28;20390;-80
2023/08/03 01:39:57;;;;;;;6.07;2.43;;;19.70;1.00;;;;;;5047852;28;20199;-80
2023/08/03 01:42:22;;;;;;;2.00;0.83;;;19.70;1.00;;;;;;5058264;28;20416;-81
2023/08/03 01:44:51;;;;;;;4.07;1.07;;;19.70;1.00;;;;;;5059571;28;20403;-82
2023/08/03 01:54:00;;;;;;;1.00;0.60;;;19.60;1.00;;;;;;5039607;28;20412;-82
2023/08/03 01:56:45;;;;;;;1.87;0.60;;;19.50;1.00;;;;;;5052980;28;20398;-80
2023/08/03 02:09:21;;;;;;;3.63;1.17;;;19.40;1.00;;;;;;5059138;28;20433;-80
2023/08/03 02:11:47;;;;;;;7.27;0.80;;;19.30;1.00;;;;;;5058720;28;20809;-82
2023/08/03 02:14:12;;;;;;;1.83;0.50;;;19.30;1.00;;;;;;5047748;28;20433;-81
2023/08/03 02:16:38;;;;;;;4.30;0.80;;;19.00;1.00;;;;;;5053902;28;20180;-81
2023/08/03 02:19:09;;;;;;;2.00;0.63;;;18.90;1.00;;;;;;5055437;28;20195;-81
2023/08/03 02:21:39;;;;;;;0.80;0.70;;;18.80;1.00;;;;;;5036068;28;20164;-82
2023/08/03 02:24:15;;;;;;;3.20;0.90;;;18.60;1.00;;;;;;5036383;28;20407;-82
2023/08/03 02:27:14;;;;;;;15.37;1.03;;;18.60;1.00;;;;;;5060981;28;20827;-82
2023/08/03 02:29:45;;;;;;;5.67;0.90;;;18.50;1.00;;;;;;5048498;28;20420;-80
2023/08/03 02:39:14;;;;;;;2.10;0.60;;;18.30;1.00;;;;;;5052829;28;20431;-82
2023/08/03 02:41:45;;;;;;;2.50;0.67;;;18.30;1.00;;;;;;5054195;28;20417;-83
2023/08/03 02:44:44;;;;;;;4.50;0.70;;;18.20;1.00;;;;;;5052368;28;20512;-81
2023/08/03 02:50:31;;;;;;;5.70;1.00;;;18.10;1.00;;;;;;5047465;28;20413;-82
2023/08/03 02:53:15;;;;;;;4.73;1.00;;;18.10;1.00;;;;;;5051902;28;20416;-81
2023/08/03 02:56:14;;;;;;;5.67;0.70;;;18.20;1.00;;;;;;5040809;28;20264;-82
2023/08/03 02:58:40;;;;;;;2.10;0.70;;;18.10;1.00;;;;;;5054628;28;20464;-81
2023/08/03 03:01:16;;;;;;;4.17;1.03;;;18.10;1.00;;;;;;5042276;28;20426;-82
2023/08/03 03:07:04;;;;;;;1.93;0.90;;;18.10;1.00;;;;;;5054477;28;20800;-80
2023/08/03 03:09:30;;;;;;;5.83;0.70;;;18.10;1.00;;;;;;5055144;28;20428;-83
2023/08/03 03:12:09;;;;;;;1.03;0.70;;;18.10;1.00;;;;;;5053883;28;20486;-82
2023/08/03 03:14:45;;;;;;;5.40;1.93;;;18.10;1.00;;;;;;5054497;28;20816;-79
2023/08/03 03:17:44;;;;;;;4.60;0.80;;;18.10;1.00;;;;;;5044885;28;20498;-81
2023/08/03 03:20:44;;;;;;;3.43;0.70;;;17.90;1.00;;;;;;5047851;28;20400;-82
2023/08/03 03:24:02;;;;;;;4.10;0.67;;;17.90;1.00;;;;;;5055076;28;20401;-83
2023/08/03 03:26:45;;;;;;;1.30;0.60;;;17.80;1.00;;;;;;5055278;28;20391;-84
2023/08/03 03:29:21;;;;;;;1.40;0.87;;;;;;;;;;5053052;28;20753;-83
2023/08/03 03:35:44;;;;;;;4.10;0.83;;;17.80;1.00;;;;;;5043978;28;20429;-89
2023/08/03 03:38:15;;;;;;;3.80;0.90;;;;;;;;;;5051390;28;20456;-91
2023/08/03 03:40:45;;;;;;;5.00;0.73;;;;;;;;;;5048671;28;20424;-84
2023/08/03 03:43:44;;;;;;;3.60;1.00;;;17.80;1.00;;;;;;5054701;28;20438;-83
2023/08/03 03:46:44;;;;;;;3.83;0.60;;;17.70;1.00;;;;;;5050822;28;20431;-83
2023/08/03 03:50:02;;;;;;;5.20;1.00;;;17.80;1.00;;;;;;5054587;28;20436;-90
2023/08/03 03:52:45;;;;;;;8.60;0.73;;;17.80;1.00;;;;;;5053755;28;20428;-82
2023/08/03 03:55:15;;;;;;;5.50;1.03;;;17.80;1.00;;;;;;5054905;28;20440;-90
2023/08/03 03:57:45;;;;;;;4.87;0.80;;;17.80;1.00;;;;;;5036358;28;20444;-90
2023/08/03 04:00:27;;;;;;;3.40;0.80;;;17.80;1.00;;;;;;5054744;28;20492;-84
2023/08/03 04:03:44;;;;;;;4.03;0.90;;;17.60;1.00;;;;;;5069737;28;20918;-89
2023/08/03 04:06:10;;;;;;;2.87;1.20;;;17.70;1.00;;;;;;5033969;28;20410;-90
2023/08/03 04:09:14;;;;;;;7.13;1.07;;;17.70;1.00;;;;;;5033723;28;20437;-90
2023/08/03 04:11:45;;;;;;;5.87;1.40;;;17.70;1.00;;;;;;5041861;28;20256;-90
2023/08/03 04:17:45;;;;;;;3.53;0.90;;;17.70;1.00;;;;;;5054751;28;20393;-90
2023/08/03 04:20:21;;;;;;;4.73;1.30;;;17.70;1.00;;;;;;5053369;28;20422;-82
2023/08/03 04:23:14;;;;;;;4.10;1.40;;;17.70;1.00;;;;;;5041481;28;20966;-90
2023/08/03 04:25:51;;;;;;;8.60;0.93;;;17.60;1.00;;;;;;5051122;28;20470;-90
2023/08/03 04:28:44;;;;;;;6.60;1.00;;;17.70;1.00;;;;;;5042622;28;20429;-83
2023/08/03 04:31:44;;;;;;;6.03;1.37;;;17.60;1.00;;;;;;5043587;28;20430;-82
2023/08/03 04:34:44;;;;;;;2.13;0.90;;;17.60;1.00;;;;;;5039796;28;20432;-84
2023/08/03 04:37:32;;;;;;;4.50;1.03;;;17.50;1.00;;;;;;5046276;28;20437;-82
2023/08/03 04:40:15;;;;;;;3.23;0.70;;;17.50;1.00;;;;;;5053834;28;20453;-84
2023/08/03 04:42:41;;;;;;;1.93;0.60;;;17.60;1.00;;;;;;5053852;28;20437;-91
2023/08/03 04:45:07;;;;;;;1.50;0.70;;;17.50;1.00;;;;;;5037843;28;20433;-82
2023/08/03 04:47:32;;;;;;;5.03;0.77;;;17.50;1.00;;;;;;5049116;28;20182;-82
2023/08/03 04:49:58;;;;;;;1.73;0.80;;;17.50;1.00;;;;;;5042791;28;20520;-83
2023/08/03 04:52:33;;;;;;;2.30;0.80;;;17.50;1.00;;;;;;5043494;28;20190;-83
2023/08/03 04:55:15;;;;;;;3.30;0.97;;;17.50;1.00;;;;;;5053575;28;20537;-85
2023/08/03 04:58:26;;;;;;;1.27;0.90;;;17.50;1.00;;;;;;5051398;28;20407;-87
2023/08/03 05:01:09;;;;;;;6.90;1.20;;;17.60;1.00;;;;;;5033631;28;20454;-90
2023/08/03 05:06:56;;;;;;;5.27;1.00;;;17.80;1.00;;;;;;5033894;28;20398;-87
2023/08/03 05:10:14;;;;;;;3.00;0.73;;;17.80;1.00;;;;;;5047521;28;20434;-90
2023/08/03 05:12:45;;;;;;;1.50;0.70;;;17.90;1.00;;;;;;5049703;28;20183;-89
2023/08/03 05:15:15;;;;;;;2.73;0.60;;;17.90;1.00;;;;;;5043603;28;20392;-89
2023/08/03 05:21:44;;;;;;;1.57;0.77;;;17.90;1.00;;;;;;5041607;28;20483;-88
2023/08/03 05:24:15;;;;;;;1.27;0.60;;;17.90;1.00;;;;;;5052348;28;20456;-88
2023/08/03 05:26:45;;;;;;;2.00;0.80;;;17.90;1.00;;;;;;5053193;28;20804;-85
2023/08/03 05:29:15;;;;;;;2.80;0.80;;;17.90;1.00;;;;;;5051992;28;20956;-84
2023/08/03 05:31:41;;;;;;;3.70;0.70;;;17.90;1.00;;;;;;5061181;28;20936;-84
2023/08/03 05:34:44;;;;;;;2.23;0.80;;;17.80;1.00;;;;;;5068367;28;20420;-83
2023/08/03 05:37:24;;;;;;;1.30;0.70;;;;;;;;;;5051104;28;20260;-84
2023/08/03 05:39:50;;;;;;;2.50;0.70;;;18.00;1.00;;;;;;5045793;28;20543;-84
2023/08/03 05:42:45;;;;;;;4.70;1.10;;;18.00;1.00;;;;;;5039187;28;20876;-88
2023/08/03 05:45:32;;;;;;;2.80;0.90;;;18.00;1.00;;;;;;5055297;28;20206;-89
2023/08/03 05:48:30;;;;;;;5.20;1.00;;;18.00;1.00;;;;;;5054079;28;20423;-89
2023/08/03 05:51:21;;;;;;;2.67;0.73;;;17.90;1.00;;;;;;4990769;28;20405;-88
2023/08/03 05:54:18;;;;;;;1.17;0.90;;;17.80;1.00;;;;;;4999183;28;20426;-88
2023/08/03 05:56:46;;;;;;;1.00;0.80;;;17.80;1.00;;;;;;5011803;28;20424;-88
2023/08/03 05:59:45;;;;;;;3.53;1.10;;;17.70;1.00;;;;;;5016054;28;20455;-88
2023/08/03 06:02:31;;;;;;;2.20;0.83;;;17.70;1.00;;;;;;4999343;28;20861;-87
2023/08/03 06:04:57;;;;;;;4.20;1.10;;;17.70;1.00;;;;;;5009599;28;20429;-88
2023/08/03 06:07:23;;;;;;;2.73;0.73;;;17.80;1.00;;;;;;4995589;28;20917;-89
2023/08/03 06:10:09;;;;;;;3.50;1.20;;;17.80;1.00;;;;;;4998967;28;20192;-87
2023/08/03 06:16:10;;;;;;;6.60;1.10;;;18.00;1.00;;;;;;5014278;28;20388;-83
2023/08/03 06:22:27;;;;;;;4.10;1.57;;;18.30;1.00;;;;;;5008860;28;20934;-82
2023/08/03 06:28:19;;;;;;;2.63;0.77;;;18.70;1.00;;;;;;5038285;28;20400;-83
2023/08/03 06:34:11;;;;;;;6.33;1.17;;;18.70;1.00;;;;;;5055906;28;20382;-83
2023/08/03 06:37:33;;;;;;;3.83;1.20;;;18.50;1.00;;;;;;5055740;28;20919;-83
2023/08/03 06:43:20;;;;;;;7.17;1.67;;;18.70;1.00;;;;;;5056484;28;20379;-88
2023/08/03 06:46:21;;;;;;;6.43;1.30;;;18.70;1.00;;;;;;5046606;28;20408;-88
2023/08/03 06:55:30;;;;;;;2.60;1.43;;;18.80;1.00;;;;;;5035930;28;20392;-89
2023/08/03 06:58:09;;;;;;;1.93;0.87;;;18.90;1.00;;;;;;5047977;28;20920;-90
2023/08/03 07:01:21;;;;;;;3.50;1.10;;;19.00;1.00;;;;;;5034829;28;20538;-89
2023/08/03 07:07:08;;;;;;;3.80;1.00;;;19.00;1.00;;;;;;5046463;28;20588;-90
2023/08/03 07:09:34;;;;;;;2.43;0.70;;;19.00;1.00;;;;;;5055047;28;20951;-90
2023/08/03 07:12:09;;;;;;;2.83;1.00;;;19.00;1.00;;;;;;5052209;28;20324;-84
2023/08/03 07:17:56;;;;;;;7.37;3.03;;;19.20;1.00;;;;;;5037243;28;20424;-84
2023/08/03 07:20:22;;;;;;;1.90;1.00;;;19.20;1.00;;;;;;5048866;28;20924;-84
2023/08/03 07:22:48;;;;;;;4.50;1.00;;;19.40;1.00;;;;;;5039995;28;20279;-84
2023/08/03 07:25:14;;;;;;;7.00;0.93;;;19.50;1.00;;;;;;5046762;28;20607;-84
2023/08/03 07:27:45;;;;;;;2.30;0.80;;;19.60;1.00;;;;;;5045552;28;20441;-83
2023/08/03 07:30:27;;;;;;;1.63;0.77;;;19.50;1.00;;;;;;5048673;28;20408;-84
2023/08/03 07:33:21;;;;;;;4.93;0.70;;;19.40;1.00;;;;;;5063829;28;20906;-83
2023/08/03 07:36:16;;;;;;;4.07;1.20;;;19.40;1.00;;;;;;5057102;28;20821;-84
2023/08/03 07:39:27;;;;;;;4.07;1.13;;;19.40;1.00;;;;;;5051569;28;20463;-84
2023/08/03 07:45:14;;;;;;;1.93;0.83;;;19.30;1.00;;;;;;5054871;28;20448;-84
2023/08/03 07:47:40;;;;;;;3.60;0.90;;;19.30;1.00;;;;;;5053512;28;20433;-84
2023/08/03 07:50:07;;;;;;;4.83;1.10;;;18.90;1.00;;;;;;5051315;28;20191;-84
2023/08/03 08:06:55;;;;;;;3.43;1.30;;;18.90;1.00;;;;;;5048105;28;20423;-83
2023/08/03 08:12:43;;;;;;;3.37;0.90;;;19.00;1.00;;;;;;5053732;28;20393;-85
2023/08/03 08:15:09;;;;;;;4.77;1.30;;;19.10;1.00;;;;;;5063471;28;20429;-89
2023/08/03 08:21:52;;;;;;;5.07;1.10;;;19.60;1.00;;;;;;5050924;28;20233;-90
2023/08/03 08:27:39;;;;;;;4.93;1.00;;;20.00;1.00;;;;;;5040788;28;20364;-90
2023/08/03 08:30:26;;;;;;;7.20;1.23;;;20.40;1.00;;;;;;5060763;28;20510;-84
2023/08/03 08:39:36;;;;;;;6.53;1.27;;;20.40;1.00;;;;;;5046418;28;20436;-89
2023/08/03 08:42:21;;;;;;;10.17;1.50;;;20.10;1.00;;;;;;5042858;28;20417;-90
2023/08/03 08:45:05;;;;;;;11.77;1.60;;;20.10;1.00;;;;;;5045413;28;20174;-90
2023/08/03 08:50:59;;;;;;;6.60;1.17;;;20.00;1.00;;;;;;5043112;28;20383;-90
2023/08/03 08:54:15;;;;;;;4.50;1.10;;;19.80;1.00;;;;;;5051693;28;20398;-89
2023/08/03 09:06:56;;;;;;;2.00;0.90;;;19.40;1.00;;;;;;5042341;28;20432;-81
2023/08/03 09:09:31;;;;;;;3.80;1.10;;;19.50;1.00;;;;;;5052110;28;20544;-80
2023/08/03 09:11:57;;;;;;;6.93;1.23;;;19.50;1.00;;;;;;5040714;28;20405;-80
2023/08/03 09:14:27;;;;;;;5.47;1.20;;;19.10;1.00;;;;;;5051928;28;20422;-80
2023/08/03 09:20:28;;;;;;;3.33;1.83;;;19.10;1.00;;;;;;5052871;28;20469;-80
2023/08/03 09:26:22;;;;;;;3.60;1.30;;;19.00;1.00;;;;;;5057101;28;20456;-80
2023/08/03 09:28:48;;;;;;;5.07;1.00;;;19.00;1.00;;;;;;5056791;28;20373;-80
2023/08/03 09:34:52;;;;;;;5.37;0.90;;;19.40;1.00;;;;;;5048037;28;20219;-80
2023/08/03 09:40:58;;;;;;;2.50;1.10;;;19.70;1.00;;;;;;5044653;28;20406;-80
2023/08/03 09:43:26;;;;;;;4.30;1.13;;;19.80;1.00;;;;;;5053114;28;20512;-80
2023/08/03 09:49:13;;;;;;;5.90;0.97;;;19.90;1.00;;;;;;5055490;28;20410;-80
2023/08/03 09:55:30;;;;;;;4.73;0.80;;;19.70;1.00;;;;;;5050463;28;20179;-80
2023/08/03 09:58:08;;;;;;;2.60;1.00;;;20.10;1.00;;;;;;5050934;28;20531;-80
2023/08/03 10:00:34;;;;;;;7.93;1.10;;;20.10;1.00;;;;;;5054821;28;20435;-81
2023/08/03 10:03:12;;;;;;;3.60;1.03;;;19.80;1.00;;;;;;5042762;28;20420;-81
2023/08/03 10:06:06;;;;;;;2.30;0.97;;;19.80;1.00;;;;;;5056519;28;20410;-80
2023/08/03 10:11:56;;;;;;;2.20;1.10;;;19.90;1.00;;;;;;5046761;28;20421;-87
2023/08/03 10:14:51;;;;;;;3.57;1.07;;;20.00;1.00;;;;;;5045646;28;20410;-86
2023/08/03 10:24:10;;;;;;;2.40;0.80;;;20.40;1.00;;;;;;5046848;28;20435;-87
2023/08/03 10:27:23;;;;;;;2.90;0.80;;;20.30;1.00;;;;;;5055748;28;20418;-85
2023/08/03 10:33:15;;;;;;;4.00;0.70;;;20.40;1.00;;;;;;5039767;28;20550;-85
2023/08/03 10:39:41;;;;;;;5.30;1.20;;;20.00;1.00;;;;;;5047162;28;20470;-82
2023/08/03 10:42:56;;;;;;;3.43;0.80;;;20.10;1.00;;;;;;5059618;28;20431;-82
2023/08/03 10:45:51;;;;;;;2.30;0.80;;;20.00;1.00;;;;;;5046384;28;20457;-85
2023/08/03 10:48:37;;;;;;;3.10;0.80;;;20.00;1.00;;;;;;5055469;28;20437;-86
2023/08/03 10:51:22;;;;;;;1.23;0.90;;;20.20;1.00;;;;;;5054231;28;20427;-85
2023/08/03 10:53:57;;;;;;;4.90;1.00;;;20.40;1.00;;;;;;5041118;28;20416;-85
2023/08/03 10:56:23;;;;;;;4.40;1.00;;;20.40;1.00;;;;;;5044747;28;20453;-85
2023/08/03 10:59:04;;;;;;;1.63;0.90;;;20.50;1.00;;;;;;5052687;28;20982;-85
2023/08/03 11:01:31;;;;;;;7.00;1.13;;;20.60;1.00;;;;;;5053251;28;20181;-82
2023/08/03 11:04:00;;;;;;;0.80;0.70;;;20.60;1.00;;;;;;5052517;28;20449;-82
2023/08/03 11:06:33;;;;;;;1.63;0.80;;;20.60;1.00;;;;;;5055069;28;20505;-81
2023/08/03 11:09:04;;;;;;;1.70;0.70;;;20.70;1.00;;;;;;5051144;28;20452;-82
2023/08/03 11:11:45;;;;;;;1.00;0.60;;;20.70;1.00;;;;;;5033540;28;20450;-82
2023/08/03 11:14:15;;;;;;;2.40;0.70;;;20.70;1.00;;;;;;5054647;28;20949;-81
2023/08/03 11:16:46;;;;;;;1.00;0.70;;;20.50;1.00;;;;;;5055289;28;20400;-82
2023/08/03 11:19:14;;;;;;;1.10;0.67;;;20.40;1.00;;;;;;5039100;28;20460;-82
2023/08/03 11:21:42;;;;;;;0.87;0.60;;;20.20;1.00;;;;;;5040572;28;20427;-83
2023/08/03 11:24:10;;;;;;;2.00;0.60;;;20.10;1.00;;;;;;5041264;28;20423;-82
2023/08/03 11:26:37;;;;;;;4.97;0.80;;;20.10;1.00;;;;;;5049140;28;20468;-85
2023/08/03 11:29:06;;;;;;;2.20;1.00;;;20.10;1.00;;;;;;5049991;28;20543;-84
2023/08/03 11:31:32;;;;;;;1.80;0.67;;;20.20;1.00;;;;;;5040186;28;20436;-83
2023/08/03 11:33:58;;;;;;;2.60;0.60;;;20.50;1.00;;;;;;5039539;28;20798;-82
2023/08/03 11:36:24;;;;;;;1.20;0.90;;;20.50;1.00;;;;;;5045526;28;20456;-82
2023/08/03 11:38:54;;;;;;;1.57;0.70;;;20.70;1.00;;;;;;5048582;28;20458;-82
2023/08/03 11:41:26;;;;;;;2.87;0.70;;;20.60;1.00;;;;;;5051794;28;20189;-81
2023/08/03 11:43:55;;;;;;;3.37;0.83;;;20.10;1.00;;;;;;5047424;28;20444;-82
2023/08/03 11:46:30;;;;;;;3.20;0.60;;;20.00;1.00;;;;;;5042066;28;20432;-82
2023/08/03 11:49:33;;;;;;;0.50;0.50;;;20.10;1.00;;;;;;5053947;28;20505;-82
2023/08/03 11:52:29;;;;;;;0.50;0.50;;;19.80;1.00;;;;;;5053698;28;20445;-81
2023/08/03 11:58:27;;;;;;;4.23;0.50;;;19.90;1.00;;;;;;5047924;28;20517;-85
2023/08/03 12:04:33;;;;;;;0.70;0.50;;;20.40;1.00;;;;;;5051662;28;20929;-86
2023/08/03 12:07:01;;;;;;;3.03;0.60;;;21.00;1.00;;;;;;5061904;28;20484;-81
2023/08/03 12:12:48;;;;;;;0.90;0.60;;;21.10;1.00;;;;;;5042249;28;20475;-82
2023/08/03 12:22:03;;;;;;;1.40;0.60;;;21.00;1.00;;;;;;5037934;28;20443;-85
2023/08/03 12:25:03;;;;;;;0.73;0.50;;;21.00;1.00;;;;;;5034773;28;20444;-85
2023/08/03 12:28:04;;;;;;;1.80;0.60;;;21.30;1.00;;;;;;5033097;28;20421;-85
2023/08/03 12:30:33;;;;;;;2.90;0.50;;;21.40;1.00;;;;;;5045811;28;20412;-86
2023/08/03 12:32:59;;;;;;;1.47;0.53;;;21.50;1.00;;;;;;5044435;28;20405;-82
2023/08/03 12:35:24;;;;;;;0.87;0.50;;;21.70;1.00;;;;;;5046355;28;20434;-82
2023/08/03 12:37:50;;;;;;;0.60;0.40;;;21.80;1.00;;;;;;5046784;28;20639;-83
2023/08/03 12:40:16;;;;;;;0.50;0.50;;;21.60;1.00;;;;;;5039560;28;20601;-82
2023/08/03 12:46:04;;;;;;;0.50;0.50;;;21.60;1.00;;;;;;5051043;28;20405;-82
2023/08/03 12:52:39;;;;;;;0.93;0.40;;;21.80;1.00;;;;;;5051996;28;20201;-81
2023/08/03 12:55:33;;;;;;;0.60;0.50;;;22.00;1.00;;;;;;5046760;28;20948;-82
2023/08/03 12:58:27;;;;;;;1.00;0.60;;;22.50;1.00;;;;;;5046926;28;20807;-82
2023/08/03 13:07:36;;;;;;;0.73;0.73;;;21.90;1.00;;;;;;5052802;28;20539;-82
2023/08/03 13:10:03;;;;;;;0.93;0.70;;;21.50;1.00;;;;;;5053288;28;20899;-82
2023/08/03 13:19:13;;;;;;;2.87;0.70;;;21.90;1.00;;;;;;5043852;28;20459;-81
2023/08/03 13:22:32;;;;;;;0.60;0.60;;;21.80;1.00;;;;;;5047932;28;20405;-81
2023/08/03 13:24:58;;;;;;;4.97;0.70;;;21.80;1.00;;;;;;5043640;28;20445;-82
2023/08/03 13:31:09;;;;;;;0.60;0.60;;;21.70;1.00;;;;;;5037816;28;20218;-86
2023/08/03 13:34:03;;;;;;;0.50;0.50;;;21.80;1.00;;;;;;5044159;28;20428;-82
2023/08/03 13:37:09;;;;;;;2.30;0.53;;;21.70;1.00;;;;;;5052469;28;20517;-82
2023/08/03 13:42:56;;;;;;;0.60;0.60;;;22.20;1.00;;;;;;5051448;28;20773;-82
2023/08/03 13:52:06;;;;;;;0.80;0.63;;;23.10;1.00;;;;;;5045898;28;20401;-79
2023/08/03 13:54:51;;;;;;;4.90;0.80;;;23.20;1.00;;;;;;5041939;28;20794;-85
2023/08/03 13:57:33;;;;;;;0.60;0.60;;;22.90;1.00;;;;;;5043158;28;20707;-85
2023/08/03 14:00:21;;;;;;;0.80;0.60;;;22.90;1.00;;;;;;5042897;28;20943;-84
2023/08/03 14:06:08;;;;;;;0.80;0.60;;;22.60;1.00;;;;;;5048340;28;20472;-82
2023/08/03 14:09:27;;;;;;;14.63;1.20;;;22.70;1.00;;;;;;5052116;28;20820;-84
2023/08/03 14:15:15;;;;;;;2.97;0.60;;;23.00;1.00;;;;;;5055767;28;20424;-82
2023/08/03 14:21:39;;;;;;;0.77;0.50;;;22.70;1.00;;;;;;5050912;28;20438;-81
2023/08/03 14:31:27;;;;;;;2.20;0.60;;;23.30;1.00;;;;;;5047552;28;20494;-81
2023/08/03 14:37:14;;;;;;;597.15;538.95;;;23.70;1.00;;;;;;5043483;28;20418;-84
2023/08/03 14:40:09;;;;;;;541.87;482.20;;;23.70;1.00;;;;;;5046092;28;20198;-84
2023/08/03 14:42:45;;;;;;;712.90;495.27;;;24.00;1.00;;;;;;5043901;28;20685;-86
2023/08/03 14:45:23;;;;;;;0.60;0.60;;;;;;;;;;5041534;28;20419;-86
2023/08/03 14:47:59;;;;;;;0.80;0.60;;;24.40;1.00;;;;;;5045297;28;20418;-84
2023/08/03 14:50:26;;;;;;;0.70;0.50;;;24.50;1.00;;;;;;5054633;28;20526;-83
2023/08/03 14:56:13;;;;;;;0.70;0.70;;;23.70;1.00;;;;;;5051716;28;20411;-83
2023/08/03 14:58:51;;;;;;;1.57;0.60;;;23.30;1.00;;;;;;5051022;28;20454;-82
2023/08/03 15:01:21;;;;;;;0.90;0.60;;;23.30;1.00;;;;;;5055359;28;20639;-83
2023/08/03 15:03:47;;;;;;;0.73;0.60;;;23.20;1.00;;;;;;5036260;28;20426;-82
2023/08/03 15:06:16;;;;;;;2.03;0.87;;;23.10;1.00;;;;;;5034153;28;20423;-82
2023/08/03 15:08:43;;;;;;;1.23;1.13;;;23.20;1.00;;;;;;5043062;28;20216;-82
2023/08/03 15:11:10;;;;;;;1.30;0.93;;;23.30;1.00;;;;;;5044980;28;20437;-83
2023/08/03 15:13:45;;;;;;;0.67;0.67;;;23.60;1.00;;;;;;5049640;28;20805;-85
2023/08/03 15:16:19;;;;;;;0.97;0.70;;;23.80;1.00;;;;;;5046799;28;20382;-83
2023/08/03 15:25:28;;;;;;;0.60;0.60;;;24.10;1.00;;;;;;5054918;28;20400;-83
2023/08/03 15:31:17;;;;;;;0.57;0.50;;;24.50;1.00;;;;;;5037807;28;20235;-83
2023/08/03 15:40:26;;;;;;;0.93;0.50;;;23.40;1.00;;;;;;5054166;28;20488;-82
2023/08/03 15:46:14;;;;;;;0.73;0.50;;;22.90;1.00;;;;;;5034743;28;20157;-81
2023/08/03 15:49:21;;;;;;;4.20;0.57;;;22.40;1.00;;;;;;5036150;28;20767;-82
2023/08/03 15:51:51;;;;;;;2.20;0.60;;;22.40;1.00;;;;;;5052563;28;20635;-84
2023/08/03 15:54:28;;;;;;;0.90;0.50;;;22.70;1.00;;;;;;5046595;28;20481;-86
2023/08/03 15:57:40;;;;;;;0.90;0.60;;;22.70;1.00;;;;;;5053672;28;20472;-84
2023/08/03 16:06:49;;;;;;;0.90;0.60;;;21.90;1.00;;;;;;5045712;28;20409;-82
2023/08/03 16:09:27;;;;;;;1.13;0.50;;;21.70;1.00;;;;;;5053627;28;20943;-83
2023/08/03 16:12:33;;;;;;;1.80;0.67;;;21.60;1.00;;;;;;5053305;28;20190;-83
2023/08/03 16:15:03;;;;;;;1.80;0.90;;;21.30;1.00;;;;;;5051830;28;20777;-81
2023/08/03 16:18:16;;;;;;;1.70;0.67;;;21.40;1.00;;;;;;5048604;28;20408;-83
2023/08/03 16:21:15;;;;;;;1.27;0.70;;;21.50;1.00;;;;;;5045970;28;20426;-81
2023/08/03 16:24:03;;;;;;;2.80;0.63;;;21.50;1.00;;;;;;5050289;28;20419;-82
2023/08/03 16:26:57;;;;;;;1.23;0.60;;;21.50;1.00;;;;;;5046933;28;20409;-81
2023/08/03 16:32:45;;;;;;;1.53;0.50;;;21.40;1.00;;;;;;5036878;28;20445;-81
2023/08/03 16:35:45;;;;;;;0.87;0.57;;;21.30;1.00;;;;;;5054023;28;20452;-80
2023/08/03 16:41:35;;;;;;;1.20;0.60;;;21.10;1.00;;;;;;5050438;28;20444;-83
2023/08/03 16:44:33;;;;;;;1.90;0.60;;;21.20;1.00;;;;;;5052449;28;20914;-87
2023/08/03 16:47:39;;;;;;;1.43;0.50;;;21.10;1.00;;;;;;5041224;28;20428;-86
2023/08/03 16:53:33;;;;;;;0.73;0.70;;;21.10;1.00;;;;;;5046591;28;20415;-81
2023/08/03 16:56:03;;;;;;;1.47;0.60;;;21.00;1.00;;;;;;5038954;28;20763;-81
2023/08/03 17:02:15;;;;;;;1.70;0.60;;;21.00;1.00;;;;;;5043293;28;20429;-81
2023/08/03 17:08:02;;;;;;;0.70;0.70;;;21.00;1.00;;;;;;5033283;28;20431;-83
2023/08/03 17:11:21;;;;;;;0.73;0.70;;;21.10;1.00;;;;;;5046241;28;20428;-83
2023/08/03 17:20:31;;;;;;;3.57;0.93;;;21.20;1.00;;;;;;5042805;28;21219;-81
2023/08/03 17:23:03;;;;;;;0.70;0.70;;;21.30;1.00;;;;;;5050795;28;20985;-81
2023/08/03 17:25:33;;;;;;;1.27;0.70;;;21.30;1.00;;;;;;5037582;28;20443;-84
2023/08/03 17:28:18;;;;;;;3.93;0.97;;;21.20;1.00;;;;;;5034031;28;20440;-84
2023/08/03 17:31:01;;;;;;;0.90;0.70;;;21.20;1.00;;;;;;5043983;28;20436;-84
2023/08/03 17:34:15;;;;;;;1.43;0.70;;;21.10;1.00;;;;;;5048528;28;20403;-83
2023/08/03 17:40:03;;;;;;;1.10;0.70;;;20.90;1.00;;;;;;5048711;28;20460;-81
2023/08/03 17:42:29;;;;;;;4.90;1.00;;;20.90;1.00;;;;;;5044942;28;21333;-82
2023/08/03 17:44:54;;;;;;;1.53;0.90;;;20.90;1.00;;;;;;5054739;28;20415;-82
2023/08/03 17:48:03;;;;;;;1.07;0.60;;;20.90;1.00;;;;;;5057116;28;20183;-85
2023/08/03 17:50:36;;;;;;;1.40;0.83;;;20.60;1.00;;;;;;5047680;28;20225;-83
2023/08/03 17:53:01;;;;;;;3.03;0.80;;;20.60;1.00;;;;;;5052454;28;20431;-84
2023/08/03 17:56:03;;;;;;;2.10;0.80;;;20.70;1.00;;;;;;5056469;28;20428;-84
2023/08/03 17:58:51;;;;;;;1.90;0.90;;;20.60;1.00;;;;;;5045410;28;20181;-83
2023/08/03 18:08:01;;;;;;;1.77;1.10;;;20.30;1.00;;;;;;5054769;28;20528;-80
2023/08/03 18:10:26;;;;;;;2.63;0.90;;;20.30;1.00;;;;;;5056422;28;20475;-80
2023/08/03 18:13:45;;;;;;;1.43;0.70;;;20.30;1.00;;;;;;5055390;28;20173;-82
2023/08/03 18:19:39;;;;;;;3.33;1.00;;;20.20;1.00;;;;;;5046057;28;20550;-83
2023/08/03 18:26:03;;;;;;;0.70;0.70;;;20.10;1.00;;;;;;5051374;28;20906;-81
2023/08/03 18:29:03;;;;;;;1.97;0.70;;;20.10;1.00;;;;;;5052105;28;20868;-83
2023/08/03 18:34:50;;;;;;;1.83;0.73;;;20.10;1.00;;;;;;5051241;28;20437;-83
2023/08/03 18:37:39;;;;;;;3.23;0.80;;;20.00;1.00;;;;;;5066780;28;20799;-83
2023/08/03 18:43:35;;;;;;;2.13;0.70;;;19.90;1.00;;;;;;5055551;28;20410;-85
2023/08/03 18:49:23;;;;;;;1.47;1.37;;;19.90;1.00;;;;;;5050713;28;20409;-84
2023/08/03 18:52:27;;;;;;;1.00;0.87;;;19.90;1.00;;;;;;5053389;28;20455;-86
2023/08/03 18:55:33;;;;;;;1.10;0.63;;;19.90;1.00;;;;;;5054628;28;20255;-88
2023/08/03 18:58:03;;;;;;;0.97;0.70;;;19.90;1.00;;;;;;5055206;28;20411;-87
2023/08/03 19:00:33;;;;;;;1.10;0.60;;;20.00;1.00;;;;;;5039493;28;20448;-87
2023/08/03 19:03:42;;;;;;;1.87;0.80;;;20.00;1.00;;;;;;5038009;28;20410;-85
2023/08/03 19:06:51;;;;;;;0.83;0.60;;;20.00;1.00;;;;;;5054128;28;20418;-87
2023/08/03 19:09:21;;;;;;;2.33;0.77;;;19.90;1.00;;;;;;5041976;28;20425;-87
2023/08/03 19:11:47;;;;;;;1.83;0.90;;;19.90;1.00;;;;;;5070968;28;20453;-87
2023/08/03 19:14:21;;;;;;;1.53;0.80;;;19.80;1.00;;;;;;5041606;28;20918;-87
2023/08/03 19:17:03;;;;;;;3.33;0.87;;;19.80;1.00;;;;;;5052110;28;20188;-87
2023/08/03 19:22:51;;;;;;;1.07;0.77;;;19.70;1.00;;;;;;5050804;28;20406;-85
2023/08/03 19:26:03;;;;;;;3.00;0.80;;;19.70;1.00;;;;;;5038430;28;20423;-84
2023/08/03 19:28:39;;;;;;;1.10;0.70;;;19.60;1.00;;;;;;5045245;28;20183;-84
2023/08/03 19:34:57;;;;;;;1.03;0.70;;;19.50;1.00;;;;;;5054919;28;20409;-87
2023/08/03 19:38:09;;;;;;;0.87;0.70;;;19.40;1.00;;;;;;5049236;28;20431;-83
2023/08/03 19:41:04;;;;;;;0.83;0.70;;;19.40;1.00;;;;;;5037355;28;20928;-84
2023/08/03 19:44:03;;;;;;;1.10;0.90;;;19.30;1.00;;;;;;5040634;28;20423;-82
2023/08/03 19:47:03;;;;;;;1.30;0.80;;;19.30;1.00;;;;;;5054805;28;20417;-83
2023/08/03 19:50:03;;;;;;;1.33;0.70;;;19.10;1.00;;;;;;5048150;28;20904;-83
2023/08/03 19:56:04;;;;;;;3.20;0.80;;;19.10;1.00;;;;;;5051327;28;20477;-82
2023/08/03 19:58:51;;;;;;;0.80;0.80;;;19.00;1.00;;;;;;5045243;28;20418;-82
2023/08/03 20:01:17;;;;;;;1.37;0.70;;;19.00;1.00;;;;;;5052855;28;20985;-82
2023/08/03 20:04:03;;;;;;;1.57;0.90;;;18.80;1.00;;;;;;5054468;28;20426;-83
2023/08/03 20:06:33;;;;;;;2.73;1.03;;;18.90;1.00;;;;;;5053808;28;20730;-82
2023/08/03 20:09:33;;;;;;;1.63;0.70;;;18.80;1.00;;;;;;5053355;28;20536;-83
2023/08/03 20:12:33;;;;;;;5.70;1.07;;;18.70;1.00;;;;;;5040864;28;20426;-82
2023/08/03 20:14:58;;;;;;;0.90;0.90;;;18.70;1.00;;;;;;5039006;28;20466;-83
2023/08/03 20:17:24;;;;;;;3.10;0.70;;;18.60;1.00;;;;;;5045629;28;20964;-81
2023/08/03 20:19:51;;;;;;;0.83;0.83;;;18.60;1.00;;;;;;5050718;28;20273;-83